createdAt,value
2019-05-10T00:00:33.084Z,100538.98
2019-05-10T00:02:53.837Z,100533.91
2019-05-10T00:05:14.096Z,100541.39
2019-05-10T00:07:34.467Z,100548.38
2019-05-10T00:09:36.683Z,100542.55
2019-05-10T00:12:01.438Z,100549.86
2019-05-10T00:14:31.540Z,100553.62
2019-05-10T00:16:33.755Z,100547.21
2019-05-10T00:18:35.800Z,100549.86
2019-05-10T00:20:38.836Z,100546.01
2019-05-10T00:22:41.479Z,100550.38
2019-05-10T00:24:43.695Z,100553.29
2019-05-10T00:26:45.761Z,100550.91
2019-05-10T00:28:49.110Z,100554.14
2019-05-10T00:30:50.900Z,100560.51
2019-05-10T00:32:52.936Z,100562.86
2019-05-10T00:34:56.319Z,100570.38
2019-05-10T00:36:58.759Z,100566.89
2019-05-10T00:39:00.356Z,100567.62
2019-05-10T00:41:03.934Z,100581.46
2019-05-10T00:43:06.053Z,100580.48
2019-05-10T00:45:08.311Z,100580.99
2019-05-10T00:47:10.733Z,100581.23
2019-05-10T00:49:12.454Z,100580.52
2019-05-10T00:51:14.508Z,100586.47
2019-05-10T00:53:16.714Z,100589.79
2019-05-10T00:55:19.630Z,100589.55
2019-05-10T00:57:22.022Z,100591.44
2019-05-10T00:59:24.231Z,100595.63
2019-05-10T01:01:26.226Z,100598.88
2019-05-10T01:03:28.265Z,100597.08
2019-05-10T01:05:30.331Z,100597.74
2019-05-10T01:07:32.457Z,100605.33
2019-05-10T01:09:34.584Z,100606.14
2019-05-10T01:11:37.446Z,100612.05
2019-05-10T01:13:39.439Z,100625.34
2019-05-10T01:15:41.621Z,100626.72
2019-05-10T01:17:43.718Z,100619.90
2019-05-10T01:19:45.758Z,100622.42
2019-05-10T01:21:47.796Z,100630.54
2019-05-10T01:23:50.111Z,100633.72
2019-05-10T01:25:52.139Z,100643.75
2019-05-10T01:27:54.232Z,100655.31
2019-05-10T01:29:56.596Z,100655.41
2019-05-10T01:31:58.524Z,100655.41
2019-05-10T01:34:00.477Z,100664.47
2019-05-10T01:36:02.793Z,100658.49
2019-05-10T01:38:04.810Z,100665.66
2019-05-10T01:40:06.939Z,100667.80
2019-05-10T01:42:09.218Z,100671.45
2019-05-10T01:44:11.223Z,100675.72
2019-05-10T01:46:13.243Z,100677.28
2019-05-10T01:48:15.571Z,100681.72
2019-05-10T01:50:17.614Z,100686.51
2019-05-10T01:52:19.904Z,100691.92
2019-05-10T01:54:22.577Z,100691.05
2019-05-10T01:56:24.744Z,100695.52
2019-05-10T01:58:27.047Z,100698.75
2019-05-10T02:00:29.434Z,100705.91
2019-05-10T02:02:31.419Z,100706.58
2019-05-10T02:04:33.430Z,100711.19
2019-05-10T02:06:35.661Z,100713.70
2019-05-10T02:08:37.684Z,100710.47
2019-05-10T02:10:39.874Z,100715.31
2019-05-10T02:12:42.157Z,100717.44
2019-05-10T02:14:44.179Z,100721.38
2019-05-10T02:16:46.208Z,100723.56
2019-05-10T02:18:48.547Z,100717.68
2019-05-10T02:20:50.311Z,100723.50
2019-05-10T02:22:52.412Z,100726.97
2019-05-10T02:24:56.163Z,100730.63
2019-05-10T02:26:58.149Z,100730.63
2019-05-10T02:29:00.231Z,100733.15
2019-05-10T02:31:02.688Z,100734.38
2019-05-10T02:33:04.469Z,100737.03
2019-05-10T02:35:07.621Z,100732.43
2019-05-10T02:37:10.091Z,100735.75
2019-05-10T02:39:12.196Z,100738.33
2019-05-10T02:41:14.516Z,100743.83
2019-05-10T02:43:16.882Z,100740.78
2019-05-10T02:45:19.106Z,100739.79
2019-05-10T02:47:21.042Z,100734.95
2019-05-10T02:49:23.259Z,100740.30
2019-05-10T02:51:25.456Z,100741.91
2019-05-10T02:53:27.798Z,100738.03
2019-05-10T02:55:30.574Z,100745.95
2019-05-10T02:57:35.687Z,100742.45
2019-05-10T02:59:37.978Z,100747.56
2019-05-10T03:01:44.448Z,100748.43
2019-05-10T03:03:48.991Z,100754.73
2019-05-10T03:05:52.838Z,100758.78
2019-05-10T03:07:58.011Z,100756.59
2019-05-10T03:10:02.089Z,100759.67
2019-05-10T03:12:38.205Z,100770.06
2019-05-10T03:14:40.648Z,100766.17
2019-05-10T03:16:44.085Z,100775.66
2019-05-10T03:18:48.885Z,100779.84
2019-05-10T03:20:54.830Z,100784.86
2019-05-10T03:22:57.415Z,100785.28
2019-05-10T03:24:59.412Z,100788.27
2019-05-10T03:27:01.716Z,100794.81
2019-05-10T03:29:05.601Z,100792.72
2019-05-10T03:31:07.613Z,100791.34
2019-05-10T03:33:09.849Z,100800.64
2019-05-10T03:35:12.186Z,100797.33
2019-05-10T03:37:14.669Z,100797.17
2019-05-10T03:39:16.621Z,100806.81
2019-05-10T03:41:18.838Z,100811.66
2019-05-10T03:43:20.867Z,100815.78
2019-05-10T03:45:25.505Z,100811.56
2019-05-10T03:47:27.532Z,100813.59
2019-05-10T03:49:29.600Z,100814.08
2019-05-10T03:51:31.740Z,100817.96
2019-05-10T03:53:33.803Z,100821.38
2019-05-10T03:55:35.866Z,100828.89
2019-05-10T03:57:38.589Z,100827.27
2019-05-10T03:59:41.541Z,100829.13
2019-05-10T04:01:43.871Z,100823.56
2019-05-10T04:03:46.129Z,100833.50
2019-05-10T04:05:48.176Z,100832.63
2019-05-10T04:07:50.292Z,100837.63
2019-05-10T04:09:52.805Z,100840.14
2019-05-10T04:11:54.835Z,100841.27
2019-05-10T04:13:56.817Z,100843.30
2019-05-10T04:15:58.866Z,100846.23
2019-05-10T04:18:01.275Z,100849.70
2019-05-10T04:20:04.469Z,100847.67
2019-05-10T04:22:06.487Z,100855.69
2019-05-10T04:24:09.625Z,100858.34
2019-05-10T04:26:11.666Z,100858.35
2019-05-10T04:28:13.850Z,100866.52
2019-05-10T04:30:16.881Z,100872.92
2019-05-10T04:32:18.878Z,100871.14
2019-05-10T04:34:21.243Z,100869.61
2019-05-10T04:36:22.885Z,100877.30
2019-05-10T04:38:25.101Z,100879.80
2019-05-10T04:40:27.455Z,100877.05
2019-05-10T04:42:30.846Z,100880.20
2019-05-10T04:44:32.912Z,100882.17
2019-05-10T04:46:35.348Z,100877.87
2019-05-10T04:48:37.282Z,100874.47
2019-05-10T04:50:39.354Z,100881.76
2019-05-10T04:52:41.523Z,100889.67
2019-05-10T04:54:43.721Z,100886.78
2019-05-10T04:56:45.758Z,100889.53
2019-05-10T04:58:48.239Z,100887.02
2019-05-10T05:00:52.792Z,100886.92
2019-05-10T05:02:54.842Z,100889.05
2019-05-10T05:04:57.583Z,100884.34
2019-05-10T05:06:59.694Z,100889.94
2019-05-10T05:09:02.198Z,100882.58
2019-05-10T05:11:05.729Z,100888.39
2019-05-10T05:13:07.746Z,100883.88
2019-05-10T05:15:10.342Z,100887.73
2019-05-10T05:17:12.829Z,100890.64
2019-05-10T05:19:14.489Z,100888.22
2019-05-10T05:21:16.544Z,100887.27
2019-05-10T05:23:19.043Z,100885.64
2019-05-10T05:25:22.127Z,100892.77
2019-05-10T05:27:24.519Z,100901.33
2019-05-10T05:29:27.026Z,100908.45
2019-05-10T05:31:28.605Z,100906.59
2019-05-10T05:33:30.659Z,100908.40
2019-05-10T05:35:33.452Z,100913.73
2019-05-10T05:37:35.619Z,100921.27
2019-05-10T05:39:37.665Z,100924.83
2019-05-10T05:41:49.062Z,100918.45
2019-05-10T05:43:46.312Z,100918.45
2019-05-10T05:45:47.909Z,100938.27
2019-05-10T05:47:50.007Z,100937.63
2019-05-10T05:49:52.661Z,100944.61
2019-05-10T05:51:54.661Z,100936.41
2019-05-10T05:55:48.697Z,100941.03
2019-05-10T05:57:50.254Z,100948.56
2019-05-10T05:59:57.351Z,100949.06
2019-05-10T06:02:00.913Z,100956.57
2019-05-10T06:04:06.305Z,100960.62
2019-05-10T06:06:15.335Z,100963.22
2019-05-10T06:08:23.039Z,100966.70
2019-05-10T06:10:19.587Z,100970.27
2019-05-10T06:12:20.672Z,100977.88
2019-05-10T06:14:22.735Z,100978.11
2019-05-10T06:16:25.099Z,100989.61
2019-05-10T06:18:27.272Z,100993.66
2019-05-10T06:20:29.513Z,100998.84
2019-05-10T06:22:31.698Z,100997.64
2019-05-10T06:24:34.425Z,100998.98
2019-05-10T06:26:36.931Z,100993.98
2019-05-10T06:30:43.365Z,101000.88
2019-05-10T06:32:45.872Z,101001.80
2019-05-10T06:34:47.597Z,101002.73
2019-05-10T06:36:49.890Z,101013.16
2019-05-10T06:38:52.176Z,101008.83
2019-05-10T06:40:54.209Z,101013.52
2019-05-10T06:42:56.196Z,101014.86
2019-05-10T06:45:05.062Z,101024.11
2019-05-10T06:47:08.267Z,101015.58
2019-05-10T06:49:10.907Z,101015.31
2019-05-10T06:51:12.737Z,101012.38
2019-05-10T06:53:15.084Z,101018.79
2019-05-10T06:55:17.266Z,101021.19
2019-05-10T06:57:19.537Z,101024.85
2019-05-10T06:59:24.769Z,101031.79
2019-05-10T07:01:25.788Z,101035.60
2019-05-10T07:03:27.972Z,101037.14
2019-05-10T07:05:30.050Z,101037.38
2019-05-10T07:07:43.383Z,101038.45
2019-05-10T07:10:01.069Z,101049.45
2019-05-10T07:11:40.344Z,101048.30
2019-05-10T07:13:47.205Z,101050.28
2019-05-10T07:15:46.801Z,101053.55
2019-05-10T07:17:48.845Z,101064.60
2019-05-10T07:19:54.863Z,101060.80
2019-05-10T07:21:54.929Z,101059.47
2019-05-10T07:23:57.147Z,101061.70
2019-05-10T07:25:59.210Z,101055.05
2019-05-10T07:28:01.528Z,101070.41
2019-05-10T07:30:03.960Z,101065.72
2019-05-10T07:32:05.866Z,101068.82
2019-05-10T07:34:09.863Z,101069.16
2019-05-10T07:36:15.249Z,101073.61
2019-05-10T07:38:16.102Z,101069.80
2019-05-10T07:40:19.006Z,101076.45
2019-05-10T07:42:21.030Z,101082.84
2019-05-10T07:44:23.082Z,101088.98
2019-05-10T07:46:25.305Z,101083.95
2019-05-10T07:48:27.314Z,101087.66
2019-05-10T07:50:29.427Z,101088.34
2019-05-10T07:52:36.766Z,101090.39
2019-05-10T07:54:37.705Z,101091.60
2019-05-10T07:56:45.676Z,101089.38
2019-05-10T07:58:44.932Z,101091.23
2019-05-10T08:00:47.134Z,101090.33
2019-05-10T08:02:59.246Z,101093.15
2019-05-10T08:04:54.607Z,101101.57
2019-05-10T08:06:59.689Z,101111.95
2019-05-10T08:09:06.277Z,101104.25
2019-05-10T08:11:05.892Z,101107.59
2019-05-10T08:13:10.219Z,101110.80
2019-05-10T08:15:12.170Z,101116.36
2019-05-10T08:17:14.375Z,101120.83
2019-05-10T08:19:16.426Z,101128.05
2019-05-10T08:21:22.438Z,101124.98
2019-05-10T08:23:26.579Z,101126.66
2019-05-10T08:25:28.974Z,101131.48
2019-05-10T08:27:32.468Z,101137.67
2019-05-10T08:29:34.814Z,101137.31
2019-05-10T08:31:40.385Z,101139.91
2019-05-10T08:33:46.279Z,101146.54
2019-05-10T08:35:46.506Z,101150.83
2019-05-10T08:37:49.283Z,101149.08
2019-05-10T08:39:55.833Z,101148.69
2019-05-10T08:42:04.060Z,101159.69
2019-05-10T08:44:02.405Z,101158.81
2019-05-10T08:46:04.033Z,101156.18
2019-05-10T08:48:07.163Z,101158.40
2019-05-10T08:50:22.324Z,101154.28
2019-05-10T08:52:13.809Z,101158.72
2019-05-10T08:54:16.152Z,101159.78
2019-05-10T08:56:23.413Z,101164.19
2019-05-10T08:58:31.353Z,101176.30
2019-05-10T09:00:41.609Z,101175.52
2019-05-10T09:02:34.540Z,101177.84
2019-05-10T09:04:42.721Z,101182.95
2019-05-10T09:06:42.027Z,101187.20
2019-05-10T09:08:44.201Z,101177.34
2019-05-10T09:10:46.207Z,101172.02
2019-05-10T09:12:54.391Z,101181.94
2019-05-10T09:14:57.350Z,101183.03
2019-05-10T09:17:03.457Z,101182.97
2019-05-10T09:19:02.564Z,101187.94
2019-05-10T09:21:08.756Z,101187.55
2019-05-10T09:23:15.257Z,101190.42
2019-05-10T09:25:14.168Z,101185.67
2019-05-10T09:27:16.240Z,101193.86
2019-05-10T09:29:18.259Z,101194.19
2019-05-10T09:31:24.846Z,101196.19
2019-05-10T09:33:24.580Z,101194.33
2019-05-10T09:35:26.690Z,101195.84
2019-05-10T09:37:29.001Z,101208.46
2019-05-10T09:39:32.150Z,101202.06
2019-05-10T09:41:38.195Z,101205.53
2019-05-10T09:43:40.491Z,101213.16
2019-05-10T09:45:42.563Z,101211.08
2019-05-10T09:47:44.874Z,101215.94
2019-05-10T09:49:54.050Z,101220.19
2019-05-10T09:51:52.511Z,101226.34
2019-05-10T09:53:57.628Z,101221.83
2019-05-10T09:56:03.139Z,101227.96
2019-05-10T09:58:04.493Z,101227.27
2019-05-10T10:00:08.429Z,101226.58
2019-05-10T10:02:15.648Z,101234.19
2019-05-10T10:04:17.881Z,101236.52
2019-05-10T10:06:19.552Z,101236.74
2019-05-10T10:08:22.969Z,101237.56
2019-05-10T10:10:30.101Z,101235.00
2019-05-10T10:12:29.088Z,101234.42
2019-05-10T10:14:37.803Z,101237.66
2019-05-10T10:16:35.515Z,101238.55
2019-05-10T10:18:37.814Z,101237.53
2019-05-10T10:20:43.867Z,101236.90
2019-05-10T10:22:52.628Z,101232.36
2019-05-10T10:24:48.961Z,101232.12
2019-05-10T10:26:53.923Z,101234.28
2019-05-10T10:28:59.547Z,101236.62
2019-05-10T10:31:05.112Z,101229.81
2019-05-10T10:33:05.649Z,101235.80
2019-05-10T10:35:13.374Z,101235.03
2019-05-10T10:37:14.601Z,101236.86
2019-05-10T10:39:22.890Z,101240.09
2019-05-10T10:41:25.867Z,101238.09
2019-05-10T10:43:27.210Z,101233.27
2019-05-10T10:45:29.781Z,101245.54
2019-05-10T10:47:32.351Z,101236.50
2019-05-10T10:49:34.325Z,101238.13
2019-05-10T10:51:37.903Z,101242.00
2019-05-10T10:53:40.480Z,101240.44
2019-05-10T10:55:46.074Z,101236.95
2019-05-10T10:57:48.281Z,101238.64
2019-05-10T10:59:50.347Z,101234.86
2019-05-10T11:02:25.322Z,101236.30
2019-05-10T11:03:56.538Z,101238.82
2019-05-10T11:05:58.632Z,101242.77
2019-05-10T11:08:01.174Z,101241.47
2019-05-10T11:10:14.931Z,101242.71
2019-05-10T11:12:08.005Z,101238.07
2019-05-10T11:14:11.089Z,101244.44
2019-05-10T11:16:15.639Z,101248.76
2019-05-10T11:18:17.516Z,101247.80
2019-05-10T11:20:21.601Z,101249.44
2019-05-10T11:22:27.200Z,101245.59
2019-05-10T11:24:28.083Z,101250.17
2019-05-10T11:26:32.901Z,101253.13
2019-05-10T11:28:44.186Z,101254.78
2019-05-10T11:30:38.643Z,101258.70
2019-05-10T11:32:41.880Z,101253.72
2019-05-10T11:34:44.477Z,101256.14
2019-05-10T11:36:48.346Z,101251.53
2019-05-10T11:38:56.917Z,101251.55
2019-05-10T11:40:54.854Z,101258.93
2019-05-10T11:42:57.017Z,101255.89
2019-05-10T11:45:00.766Z,101260.89
2019-05-10T11:47:03.143Z,101254.61
2019-05-10T11:49:05.579Z,101258.77
2019-05-10T11:51:12.343Z,101257.88
2019-05-10T11:53:13.308Z,101251.95
2019-05-10T11:55:15.385Z,101247.13
2019-05-10T11:57:17.705Z,101256.22
2019-05-10T11:59:21.836Z,101255.44
2019-05-10T12:01:24.077Z,101262.31
2019-05-10T12:03:27.397Z,101258.16
2019-05-10T12:05:31.973Z,101266.30
2019-05-10T12:07:42.440Z,101262.15
2019-05-10T12:09:38.084Z,101260.79
2019-05-10T12:11:51.245Z,101271.40
2019-05-10T12:13:44.109Z,101276.95
2019-05-10T12:15:46.093Z,101271.06
2019-05-10T12:19:56.356Z,101279.64
2019-05-10T12:22:07.789Z,101291.18
2019-05-10T12:24:26.314Z,101284.77
2019-05-10T12:26:05.336Z,101281.28
2019-05-10T12:28:24.435Z,101284.08
2019-05-10T12:30:23.971Z,101280.33
2019-05-10T12:32:26.958Z,101282.92
2019-05-10T12:34:31.139Z,101289.16
2019-05-10T12:36:33.952Z,101282.91
2019-05-10T12:38:36.573Z,101285.98
2019-05-10T12:40:41.746Z,101291.91
2019-05-10T12:42:46.917Z,101296.06
2019-05-10T12:44:48.221Z,101298.80
2019-05-10T12:46:54.073Z,101296.19
2019-05-10T12:48:55.123Z,101302.06
2019-05-10T12:51:02.011Z,101297.68
2019-05-10T12:53:12.654Z,101302.17
2019-05-10T12:55:05.502Z,101307.34
2019-05-10T12:57:07.148Z,101307.73
2019-05-10T12:59:09.099Z,101304.91
2019-05-10T13:01:12.508Z,101304.49
2019-05-10T13:03:19.009Z,101316.93
2019-05-10T13:05:19.640Z,101310.00
2019-05-10T13:07:23.818Z,101317.88
2019-05-10T13:09:38.043Z,101316.47
2019-05-10T13:11:29.783Z,101309.42
2019-05-10T13:13:31.956Z,101312.83
2019-05-10T13:15:34.013Z,101319.48
2019-05-10T13:17:35.985Z,101318.18
2019-05-10T13:19:38.235Z,101309.88
2019-05-10T13:21:40.218Z,101318.05
2019-05-10T13:23:42.230Z,101315.67
2019-05-10T13:25:44.437Z,101319.36
2019-05-10T13:27:46.480Z,101323.69
2019-05-10T13:29:53.325Z,101322.08
2019-05-10T13:31:52.759Z,101318.50
2019-05-10T13:33:56.681Z,101324.58
2019-05-10T13:35:59.080Z,101315.76
2019-05-10T13:38:03.779Z,101323.61
2019-05-10T13:40:07.965Z,101326.66
2019-05-10T13:42:09.887Z,101321.02
2019-05-10T13:44:12.507Z,101327.16
2019-05-10T13:46:14.566Z,101323.27
2019-05-10T13:48:16.732Z,101324.63
2019-05-10T13:50:19.110Z,101324.56
2019-05-10T13:52:20.951Z,101326.06
2019-05-10T13:54:23.040Z,101334.25
2019-05-10T13:56:25.497Z,101327.16
2019-05-10T13:58:30.137Z,101319.65
2019-05-10T14:00:36.086Z,101331.83
2019-05-10T14:02:38.925Z,101327.62
2019-05-10T14:04:40.930Z,101320.31
2019-05-10T14:06:42.994Z,101322.92
2019-05-10T14:08:48.413Z,101317.63
2019-05-10T14:10:49.936Z,101323.12
2019-05-10T14:12:55.995Z,101321.13
2019-05-10T14:15:02.409Z,101330.83
2019-05-10T14:17:00.308Z,101326.32
2019-05-10T14:19:02.299Z,101334.36
2019-05-10T14:21:04.556Z,101335.06
2019-05-10T14:23:06.751Z,101337.03
2019-05-10T14:25:10.123Z,101336.90
2019-05-10T14:27:12.706Z,101338.25
2019-05-10T14:29:14.741Z,101343.96
2019-05-10T14:31:16.739Z,101345.18
2019-05-10T14:33:20.422Z,101337.11
2019-05-10T14:35:22.835Z,101340.66
2019-05-10T14:37:25.883Z,101339.47
2019-05-10T14:39:27.891Z,101330.09
2019-05-10T14:41:30.182Z,101336.44
2019-05-10T14:43:32.161Z,101334.74
2019-05-10T14:45:34.436Z,101334.95
2019-05-10T14:47:46.741Z,101331.80
2019-05-10T14:49:46.455Z,101335.36
2019-05-10T14:51:58.455Z,101329.59
2019-05-10T14:53:48.888Z,101330.73
2019-05-10T14:55:50.885Z,101333.06
2019-05-10T14:57:53.262Z,101331.83
2019-05-10T14:59:55.346Z,101333.51
2019-05-10T15:01:57.524Z,101321.80
2019-05-10T15:03:59.846Z,101321.80
2019-05-10T15:06:02.079Z,101328.81
2019-05-10T15:08:04.330Z,101326.81
2019-05-10T15:10:06.983Z,101334.09
2019-05-10T15:12:10.312Z,101328.48
2019-05-10T15:14:14.390Z,101328.96
2019-05-10T15:16:26.027Z,101330.80
2019-05-10T15:18:20.674Z,101337.09
2019-05-10T15:20:22.728Z,101335.64
2019-05-10T15:22:25.689Z,101333.73
2019-05-10T15:24:27.737Z,101343.62
2019-05-10T15:26:29.872Z,101338.09
2019-05-10T15:28:34.520Z,101337.25
2019-05-10T15:30:39.387Z,101336.13
2019-05-10T15:32:40.404Z,101331.81
2019-05-10T15:35:03.864Z,101336.20
2019-05-10T15:36:48.457Z,101333.84
2019-05-10T15:38:52.300Z,101334.13
2019-05-10T15:40:54.800Z,101325.25
2019-05-10T15:42:56.837Z,101326.95
2019-05-10T15:45:05.241Z,101328.90
2019-05-10T15:47:03.316Z,101329.96
2019-05-10T15:49:06.722Z,101324.34
2019-05-10T15:51:11.102Z,101334.09
2019-05-10T15:53:12.892Z,101327.91
2019-05-10T15:55:16.479Z,101330.23
2019-05-10T15:57:21.669Z,101330.23
2019-05-10T15:59:24.584Z,101334.81
2019-05-10T16:01:28.982Z,101330.96
2019-05-10T16:03:30.509Z,101330.88
2019-05-10T16:05:43.127Z,101324.91
2019-05-10T16:07:37.101Z,101330.55
2019-05-10T16:09:39.525Z,101329.59
2019-05-10T16:11:41.697Z,101320.47
2019-05-10T16:13:43.710Z,101319.13
2019-05-10T16:15:45.699Z,101322.66
2019-05-10T16:17:47.928Z,101322.94
2019-05-10T16:19:50.954Z,101320.30
2019-05-10T16:21:58.036Z,101312.97
2019-05-10T16:23:59.178Z,101314.40
2019-05-10T16:26:01.621Z,101316.52
2019-05-10T16:28:03.634Z,101316.76
2019-05-10T16:30:11.874Z,101312.14
2019-05-10T16:32:11.641Z,101313.38
2019-05-10T16:34:13.647Z,101308.32
2019-05-10T16:36:16.089Z,101307.28
2019-05-10T16:38:18.085Z,101310.66
2019-05-10T16:40:20.289Z,101309.78
2019-05-10T16:42:27.784Z,101305.32
2019-05-10T16:44:27.481Z,101308.09
2019-05-10T16:46:29.611Z,101306.09
2019-05-10T16:48:31.914Z,101297.87
2019-05-10T16:50:33.985Z,101303.32
2019-05-10T16:52:37.104Z,101304.08
2019-05-10T16:54:39.329Z,101294.50
2019-05-10T16:56:41.980Z,101300.60
2019-05-10T16:58:47.515Z,101295.38
2019-05-10T17:00:49.249Z,101296.25
2019-05-10T17:02:51.224Z,101303.30
2019-05-10T17:04:53.424Z,101302.16
2019-05-10T17:06:58.467Z,101310.65
2019-05-10T17:08:59.627Z,101311.75
2019-05-10T17:11:09.494Z,101308.17
2019-05-10T17:13:06.687Z,101308.95
2019-05-10T17:15:08.872Z,101308.92
2019-05-10T17:17:10.868Z,101302.98
2019-05-10T17:19:13.288Z,101308.13
2019-05-10T17:21:15.632Z,101309.61
2019-05-10T17:23:17.836Z,101307.18
2019-05-10T17:25:22.623Z,101307.61
2019-05-10T17:27:24.163Z,101308.77
2019-05-10T17:29:26.588Z,101307.95
2019-05-10T17:31:28.835Z,101298.81
2019-05-10T17:33:30.830Z,101298.81
2019-05-10T17:35:36.891Z,101306.08
2019-05-10T17:37:37.539Z,101306.62
2019-05-10T17:39:39.677Z,101298.08
2019-05-10T17:41:41.853Z,101302.00
2019-05-10T17:43:44.063Z,101299.14
2019-05-10T17:45:46.334Z,101299.62
2019-05-10T17:47:48.295Z,101296.20
2019-05-10T17:49:52.330Z,101303.01
2019-05-10T17:51:54.341Z,101299.47
2019-05-10T17:54:01.529Z,101298.81
2019-05-10T17:56:02.917Z,101299.28
2019-05-10T17:58:04.484Z,101299.72
2019-05-10T18:00:07.457Z,101291.16
2019-05-10T18:02:09.637Z,101300.91
2019-05-10T18:04:11.632Z,101304.42
2019-05-10T18:06:23.613Z,101309.55
2019-05-10T18:08:18.934Z,101311.59
2019-05-10T18:10:20.996Z,101318.22
2019-05-10T18:12:27.007Z,101318.40
2019-05-10T18:14:29.524Z,101326.13
2019-05-10T18:16:31.568Z,101335.69
2019-05-10T18:18:35.162Z,101333.75
2019-05-10T18:20:42.086Z,101346.41
2019-05-10T18:22:45.033Z,101342.02
2019-05-10T18:24:45.953Z,101354.11
2019-05-10T18:26:48.367Z,101343.48
2019-05-10T18:28:50.379Z,101340.73
2019-05-10T18:30:52.704Z,101334.86
2019-05-10T18:32:54.966Z,101334.97
2019-05-10T18:34:57.065Z,101332.27
2019-05-10T18:36:59.175Z,101334.27
2019-05-10T18:39:01.460Z,101338.08
2019-05-10T18:41:05.454Z,101331.67
2019-05-10T18:43:07.939Z,101337.68
2019-05-10T18:45:11.836Z,101342.12
2019-05-10T18:47:14.012Z,101341.87
2019-05-10T18:49:16.047Z,101345.63
2019-05-10T18:51:24.499Z,101352.25
2019-05-10T18:53:22.324Z,101348.83
2019-05-10T18:55:24.373Z,101341.30
2019-05-10T18:57:26.872Z,101344.91
2019-05-10T18:59:30.547Z,101345.69
2019-05-10T19:01:38.533Z,101347.88
2019-05-10T19:03:36.834Z,101347.98
2019-05-10T19:05:39.041Z,101352.02
2019-05-10T19:07:41.289Z,101355.34
2019-05-10T19:09:43.447Z,101347.64
2019-05-10T19:11:45.729Z,101349.34
2019-05-10T19:13:53.766Z,101347.12
2019-05-10T19:15:57.812Z,101344.00
2019-05-10T19:17:57.002Z,101348.25
2019-05-10T19:19:59.799Z,101344.83
2019-05-10T19:22:02.991Z,101342.90
2019-05-10T19:24:05.747Z,101343.52
2019-05-10T19:26:08.049Z,101345.53
2019-05-10T19:28:10.286Z,101340.19
2019-05-10T19:30:12.568Z,101341.77
2019-05-10T19:32:18.044Z,101341.84
2019-05-10T19:34:18.857Z,101346.30
2019-05-10T19:36:20.866Z,101351.24
2019-05-10T19:38:23.156Z,101344.03
2019-05-10T19:40:25.299Z,101357.38
2019-05-10T19:42:31.195Z,101359.20
2019-05-10T19:44:34.543Z,101360.94
2019-05-10T19:46:39.370Z,101358.50
2019-05-10T19:48:40.846Z,101361.86
2019-05-10T19:50:43.106Z,101358.45
2019-05-10T19:52:45.376Z,101356.66
2019-05-10T19:54:47.506Z,101364.23
2019-05-10T19:56:49.809Z,101363.84
2019-05-10T19:58:51.825Z,101361.21
2019-05-10T20:00:53.887Z,101356.68
2019-05-10T20:02:56.098Z,101358.70
2019-05-10T20:04:58.376Z,101355.97
2019-05-10T20:07:00.393Z,101358.61
2019-05-10T20:09:05.403Z,101367.63
2019-05-10T20:11:07.484Z,101355.85
2019-05-10T20:13:09.827Z,101353.83
2019-05-10T20:15:12.366Z,101348.84
2019-05-10T20:17:14.492Z,101350.59
2019-05-10T20:19:16.517Z,101354.84
2019-05-10T20:21:18.662Z,101360.69
2019-05-10T20:23:20.906Z,101361.64
2019-05-10T20:25:23.002Z,101352.98
2019-05-10T20:27:25.257Z,101355.72
2019-05-10T20:29:27.493Z,101345.27
2019-05-10T20:31:30.720Z,101345.36
2019-05-10T20:33:36.260Z,101338.33
2019-05-10T20:35:39.342Z,101339.30
2019-05-10T20:37:41.519Z,101344.95
2019-05-10T20:39:43.768Z,101345.13
2019-05-10T20:41:45.805Z,101346.13
2019-05-10T20:43:47.820Z,101343.26
2019-05-10T20:45:50.059Z,101342.77
2019-05-10T20:47:52.102Z,101343.62
2019-05-10T20:49:54.298Z,101340.12
2019-05-10T20:51:56.833Z,101335.81
2019-05-10T20:53:59.050Z,101338.12
2019-05-10T20:56:04.212Z,101342.39
2019-05-10T20:58:06.893Z,101349.91
2019-05-10T21:00:09.268Z,101354.39
2019-05-10T21:02:11.879Z,101355.77
2019-05-10T21:04:14.258Z,101356.97
2019-05-10T21:06:16.348Z,101359.55
2019-05-10T21:08:19.584Z,101361.03
2019-05-10T21:10:22.079Z,101356.16
2019-05-10T21:12:23.832Z,101350.89
2019-05-10T21:14:28.624Z,101355.98
2019-05-10T21:16:30.818Z,101357.47
2019-05-10T21:18:32.723Z,101349.27
2019-05-10T21:20:34.694Z,101347.27
2019-05-10T21:22:36.999Z,101347.27
2019-05-10T21:24:39.112Z,101345.14
2019-05-10T21:26:41.116Z,101341.02
2019-05-10T21:28:43.732Z,101339.25
2019-05-10T21:30:45.768Z,101347.75
2019-05-10T21:32:47.847Z,101348.03
2019-05-10T21:34:50.193Z,101355.52
2019-05-10T21:36:52.238Z,101359.09
2019-05-10T21:38:54.333Z,101356.90
2019-05-10T21:40:56.720Z,101353.58
2019-05-10T21:42:58.945Z,101350.16
2019-05-10T21:45:00.955Z,101350.64
2019-05-10T21:47:02.978Z,101346.41
2019-05-10T21:49:05.017Z,101345.88
2019-05-10T21:51:07.293Z,101346.16
2019-05-10T21:53:11.418Z,101346.44
2019-05-10T21:55:13.511Z,101347.40
2019-05-10T21:57:16.966Z,101351.03
2019-05-10T21:59:19.057Z,101346.83
2019-05-10T22:01:21.424Z,101353.27
2019-05-10T22:03:23.092Z,101358.00
2019-05-10T22:05:25.420Z,101346.39
2019-05-10T22:07:27.402Z,101357.27
2019-05-10T22:09:29.887Z,101357.17
2019-05-10T22:11:32.108Z,101349.02
2019-05-10T22:13:34.508Z,101344.89
2019-05-10T22:15:36.676Z,101354.97
2019-05-10T22:17:38.922Z,101353.27
2019-05-10T22:19:42.180Z,101355.15
2019-05-10T22:21:44.198Z,101357.72
2019-05-10T22:23:46.442Z,101356.28
2019-05-10T22:25:48.432Z,101354.41
2019-05-10T22:27:50.476Z,101351.02
2019-05-10T22:29:52.618Z,101354.66
2019-05-10T22:31:54.668Z,101351.90
2019-05-10T22:33:57.309Z,101349.25
2019-05-10T22:35:59.631Z,101351.75
2019-05-10T22:38:01.477Z,101344.51
2019-05-10T22:40:03.935Z,101337.38
2019-05-10T22:42:05.881Z,101343.73
2019-05-10T22:44:10.892Z,101343.48
2019-05-10T22:46:12.904Z,101339.10
2019-05-10T22:48:14.908Z,101329.13
2019-05-10T22:50:17.042Z,101347.02
2019-05-10T22:52:19.047Z,101339.73
2019-05-10T22:54:21.303Z,101344.60
2019-05-10T22:56:24.433Z,101340.67
2019-05-10T22:58:26.482Z,101345.89
2019-05-10T23:00:28.819Z,101342.05
2019-05-10T23:02:30.930Z,101342.20
2019-05-10T23:04:32.956Z,101341.17
2019-05-10T23:06:35.112Z,101337.55
2019-05-10T23:08:37.554Z,101332.05
2019-05-10T23:10:39.183Z,101337.45
2019-05-10T23:12:41.397Z,101336.64
2019-05-10T23:14:43.546Z,101330.27
2019-05-10T23:16:45.578Z,101329.39
2019-05-10T23:18:47.982Z,101327.42
2019-05-10T23:20:49.947Z,101327.14
2019-05-10T23:22:52.043Z,101330.40
2019-05-10T23:24:54.286Z,101330.70
2019-05-10T23:26:56.418Z,101326.12
2019-05-10T23:28:58.445Z,101329.36